Iliamna Airport Iliamna US
ICAO: PAIL
IATA:
Category: Medium
Scheduled Services:

Elevation: 192 ft
TransAlt. 18000 ft.

Airport Communications:
ASOS:134.95
ATIS:134.95
ANCHORAGE CNTR:118.8
CTAF:123.6
RDO:123.6
KENAI RDO:121.2
KENAI RDO:122.2

PAIL Zoom In..

If Map Doesn't Load, Click Here

Runways:

(A) RW 07 length 5086 ft width 100 ft
---- / hdg 76

(B) RW 17 length 4800 ft width 100 ft
---- / hdg 172

(C) RW 25 length 5086 ft width 100 ft
---- / hdg 256

(D) RW 35 length 4800 ft width 100 ft
---- / hdg 352

Location; PAIL
Day. 21 / Time. 13.43 Zulu
* Altimeter: 30.07
* Temperature: 10° c. 50°f.
* Wind from: 220° Speed 03 kn.
Dewpoint: 09° c.
Visibility: 10 Statute Miles.
Clouds: Overcast 1300 ft.

PAIL 211343Z 22003KT 10SM OVC013 10/09 A3007 RMK AO2 RAB32E42 P0000 T01000089 $


Wind From 220°
Speed 03 kn.

 
 
jpsmedia.com for Web Design worldairports.se 2018   terms of use